Canas, Costa Rica
Current Conditions -  °F | °C
As of 2:20 PM on Thursday 23 Oct 2014 (Local Time) from MRLB Reporting Station
Moderate Rain Moderate Rain  
Wind Chill: 79°   Ceiling: Unl
Heat Index: 83°   Visibility: 3mi
Dew Point: 77°   Wind: 6mph
Humidity: 94%   Direction: 270°W
Pressure: 29.8"   Gusts: NA
Location:  10.43°N, 85.1°W
Report Text: MRLB 232020Z 27005KT 5000 2000W RA SCT010 SCT020 26/25 A2980
Loading
Personal Weather Stations






























Interactive Weather Map
Tropical Storm Tracking
New forecast layout! Learn more

10-Day Weather Forecast

Advertisements
Track Severe Weather on mobile